sensor_id;sensor_type;location;lat;lon;timestamp;temperature;humidity
28677;DHT22;15858;48.338;11.078;2023-08-30T00:00:49;13.20;99.90
28677;DHT22;15858;48.338;11.078;2023-08-30T00:03:15;13.20;99.90
28677;DHT22;15858;48.338;11.078;2023-08-30T00:05:42;13.20;99.90
28677;DHT22;15858;48.338;11.078;2023-08-30T00:08:09;13.20;99.90
28677;DHT22;15858;48.338;11.078;2023-08-30T00:10:36;13.20;99.90
28677;DHT22;15858;48.338;11.078;2023-08-30T00:13:03;13.10;99.90
28677;DHT22;15858;48.338;11.078;2023-08-30T00:15:30;13.10;99.90
28677;DHT22;15858;48.338;11.078;2023-08-30T00:17:57;13.10;99.90
28677;DHT22;15858;48.338;11.078;2023-08-30T00:20:23;13.10;99.90
28677;DHT22;15858;48.338;11.078;2023-08-30T00:22:50;13.10;99.90
28677;DHT22;15858;48.338;11.078;2023-08-30T00:25:17;13.10;99.90
28677;DHT22;15858;48.338;11.078;2023-08-30T00:27:43;13.10;99.90
28677;DHT22;15858;48.338;11.078;2023-08-30T00:30:10;13.10;99.90
28677;DHT22;15858;48.338;11.078;2023-08-30T00:32:37;13.10;99.90
28677;DHT22;15858;48.338;11.078;2023-08-30T00:35:04;13.10;99.90
28677;DHT22;15858;48.338;11.078;2023-08-30T00:37:31;13.10;99.90
28677;DHT22;15858;48.338;11.078;2023-08-30T00:39:58;13.10;99.90
28677;DHT22;15858;48.338;11.078;2023-08-30T00:42:24;13.10;99.90
28677;DHT22;15858;48.338;11.078;2023-08-30T00:44:51;13.00;99.90
28677;DHT22;15858;48.338;11.078;2023-08-30T00:47:18;13.10;99.90
28677;DHT22;15858;48.338;11.078;2023-08-30T00:49:44;13.00;99.90
28677;DHT22;15858;48.338;11.078;2023-08-30T00:52:11;13.00;99.90
28677;DHT22;15858;48.338;11.078;2023-08-30T00:54:39;13.00;99.90
28677;DHT22;15858;48.338;11.078;2023-08-30T00:57:06;13.00;99.90
28677;DHT22;15858;48.338;11.078;2023-08-30T00:59:33;12.90;99.90
28677;DHT22;15858;48.338;11.078;2023-08-30T01:02:01;13.00;99.90
28677;DHT22;15858;48.338;11.078;2023-08-30T01:04:28;13.00;99.90
28677;DHT22;15858;48.338;11.078;2023-08-30T01:06:55;13.00;99.90
28677;DHT22;15858;48.338;11.078;2023-08-30T01:09:22;13.00;99.90
28677;DHT22;15858;48.338;11.078;2023-08-30T01:12:13;12.90;99.90
28677;DHT22;15858;48.338;11.078;2023-08-30T01:15:04;13.00;99.90
28677;DHT22;15858;48.338;11.078;2023-08-30T01:17:33;13.00;99.90
28677;DHT22;15858;48.338;11.078;2023-08-30T01:20:04;13.00;99.90
28677;DHT22;15858;48.338;11.078;2023-08-30T01:22:53;13.00;99.90
28677;DHT22;15858;48.338;11.078;2023-08-30T01:25:31;13.00;99.90
28677;DHT22;15858;48.338;11.078;2023-08-30T01:28:01;13.00;99.90
28677;DHT22;15858;48.338;11.078;2023-08-30T01:30:32;13.00;99.90
28677;DHT22;15858;48.338;11.078;2023-08-30T01:33:03;13.00;99.90
28677;DHT22;15858;48.338;11.078;2023-08-30T01:35:34;13.00;99.90
28677;DHT22;15858;48.338;11.078;2023-08-30T01:38:05;13.00;99.90
28677;DHT22;15858;48.338;11.078;2023-08-30T01:40:36;12.90;99.90
28677;DHT22;15858;48.338;11.078;2023-08-30T01:43:05;12.90;99.90
28677;DHT22;15858;48.338;11.078;2023-08-30T01:45:39;13.00;99.90
28677;DHT22;15858;48.338;11.078;2023-08-30T01:48:09;13.00;99.90
28677;DHT22;15858;48.338;11.078;2023-08-30T01:50:39;13.00;99.90
28677;DHT22;15858;48.338;11.078;2023-08-30T01:53:08;13.00;99.90
28677;DHT22;15858;48.338;11.078;2023-08-30T01:55:35;13.00;99.90
28677;DHT22;15858;48.338;11.078;2023-08-30T01:58:06;13.00;99.90
28677;DHT22;15858;48.338;11.078;2023-08-30T02:00:35;13.00;99.90
28677;DHT22;15858;48.338;11.078;2023-08-30T02:03:13;13.00;99.90
28677;DHT22;15858;48.338;11.078;2023-08-30T02:05:47;12.90;99.90
28677;DHT22;15858;48.338;11.078;2023-08-30T02:08:17;12.90;99.90
28677;DHT22;15858;48.338;11.078;2023-08-30T02:10:52;12.90;99.90
28677;DHT22;15858;48.338;11.078;2023-08-30T02:13:26;12.90;99.90
28677;DHT22;15858;48.338;11.078;2023-08-30T02:15:56;12.90;99.90
28677;DHT22;15858;48.338;11.078;2023-08-30T02:18:26;12.90;99.90
28677;DHT22;15858;48.338;11.078;2023-08-30T02:20:53;12.90;99.90
28677;DHT22;15858;48.338;11.078;2023-08-30T02:23:23;12.90;99.90
28677;DHT22;15858;48.338;11.078;2023-08-30T02:25:50;12.90;99.90
28677;DHT22;15858;48.338;11.078;2023-08-30T02:28:16;12.90;99.90
28677;DHT22;15858;48.338;11.078;2023-08-30T02:30:43;12.90;99.90
28677;DHT22;15858;48.338;11.078;2023-08-30T02:33:09;12.90;99.90
28677;DHT22;15858;48.338;11.078;2023-08-30T02:35:36;12.90;99.90
28677;DHT22;15858;48.338;11.078;2023-08-30T02:38:03;12.90;99.90
28677;DHT22;15858;48.338;11.078;2023-08-30T02:40:30;12.80;99.90
28677;DHT22;15858;48.338;11.078;2023-08-30T02:42:56;12.80;99.90
28677;DHT22;15858;48.338;11.078;2023-08-30T02:45:23;12.80;99.90
28677;DHT22;15858;48.338;11.078;2023-08-30T02:47:50;12.80;99.90
28677;DHT22;15858;48.338;11.078;2023-08-30T02:50:16;12.80;99.90
28677;DHT22;15858;48.338;11.078;2023-08-30T02:52:43;12.80;99.90
28677;DHT22;15858;48.338;11.078;2023-08-30T02:55:09;12.80;99.90
28677;DHT22;15858;48.338;11.078;2023-08-30T02:57:36;12.80;99.90
28677;DHT22;15858;48.338;11.078;2023-08-30T03:00:03;12.80;99.90
28677;DHT22;15858;48.338;11.078;2023-08-30T03:02:30;12.80;99.90
28677;DHT22;15858;48.338;11.078;2023-08-30T03:04:56;12.80;99.90
28677;DHT22;15858;48.338;11.078;2023-08-30T03:07:23;12.80;99.90
28677;DHT22;15858;48.338;11.078;2023-08-30T03:09:53;12.80;99.90
28677;DHT22;15858;48.338;11.078;2023-08-30T03:12:19;12.80;99.90
28677;DHT22;15858;48.338;11.078;2023-08-30T03:14:47;12.80;99.90
28677;DHT22;15858;48.338;11.078;2023-08-30T03:17:13;12.80;99.90
28677;DHT22;15858;48.338;11.078;2023-08-30T03:19:40;12.80;99.90
28677;DHT22;15858;48.338;11.078;2023-08-30T03:22:06;12.80;99.90
28677;DHT22;15858;48.338;11.078;2023-08-30T03:24:33;12.80;99.90
28677;DHT22;15858;48.338;11.078;2023-08-30T03:27:00;12.70;99.90
28677;DHT22;15858;48.338;11.078;2023-08-30T03:29:26;12.70;99.90
28677;DHT22;15858;48.338;11.078;2023-08-30T03:31:53;12.80;99.90
28677;DHT22;15858;48.338;11.078;2023-08-30T03:34:20;12.70;99.90
28677;DHT22;15858;48.338;11.078;2023-08-30T03:36:46;12.70;99.90
28677;DHT22;15858;48.338;11.078;2023-08-30T03:39:13;12.70;99.90
28677;DHT22;15858;48.338;11.078;2023-08-30T03:41:39;12.60;99.90
28677;DHT22;15858;48.338;11.078;2023-08-30T03:44:06;12.60;99.90
28677;DHT22;15858;48.338;11.078;2023-08-30T03:46:33;12.60;99.90
28677;DHT22;15858;48.338;11.078;2023-08-30T03:48:59;12.60;99.90
28677;DHT22;15858;48.338;11.078;2023-08-30T03:51:26;12.60;99.90
28677;DHT22;15858;48.338;11.078;2023-08-30T03:53:53;12.60;99.90
28677;DHT22;15858;48.338;11.078;2023-08-30T03:56:19;12.60;99.90
28677;DHT22;15858;48.338;11.078;2023-08-30T03:58:46;12.60;99.90
28677;DHT22;15858;48.338;11.078;2023-08-30T04:01:13;12.60;99.90
28677;DHT22;15858;48.338;11.078;2023-08-30T04:03:39;12.60;99.90
28677;DHT22;15858;48.338;11.078;2023-08-30T04:06:06;12.60;99.90
28677;DHT22;15858;48.338;11.078;2023-08-30T04:08:33;12.60;99.90
28677;DHT22;15858;48.338;11.078;2023-08-30T04:11:00;12.60;99.90
28677;DHT22;15858;48.338;11.078;2023-08-30T04:13:26;12.60;99.90
28677;DHT22;15858;48.338;11.078;2023-08-30T04:15:53;12.60;99.90
28677;DHT22;15858;48.338;11.078;2023-08-30T04:18:19;12.60;99.90
28677;DHT22;15858;48.338;11.078;2023-08-30T04:20:47;12.60;99.90
28677;DHT22;15858;48.338;11.078;2023-08-30T04:23:13;12.60;99.90
28677;DHT22;15858;48.338;11.078;2023-08-30T04:25:40;12.60;99.90
28677;DHT22;15858;48.338;11.078;2023-08-30T04:28:07;12.60;99.90
28677;DHT22;15858;48.338;11.078;2023-08-30T04:30:36;12.60;99.90
28677;DHT22;15858;48.338;11.078;2023-08-30T04:33:03;12.60;99.90
28677;DHT22;15858;48.338;11.078;2023-08-30T04:35:30;12.60;99.90
28677;DHT22;15858;48.338;11.078;2023-08-30T04:38:01;12.50;99.90
28677;DHT22;15858;48.338;11.078;2023-08-30T04:40:27;12.50;99.90
28677;DHT22;15858;48.338;11.078;2023-08-30T04:42:54;12.60;99.90
28677;DHT22;15858;48.338;11.078;2023-08-30T04:45:21;12.60;99.90
28677;DHT22;15858;48.338;11.078;2023-08-30T04:47:47;12.50;99.90
28677;DHT22;15858;48.338;11.078;2023-08-30T04:50:14;12.50;99.90
28677;DHT22;15858;48.338;11.078;2023-08-30T04:52:41;12.60;99.90
28677;DHT22;15858;48.338;11.078;2023-08-30T04:55:08;12.60;99.90
28677;DHT22;15858;48.338;11.078;2023-08-30T04:57:34;12.50;99.90
28677;DHT22;15858;48.338;11.078;2023-08-30T05:00:01;12.50;99.90
28677;DHT22;15858;48.338;11.078;2023-08-30T05:02:27;12.50;99.90
28677;DHT22;15858;48.338;11.078;2023-08-30T05:04:54;12.60;99.90
28677;DHT22;15858;48.338;11.078;2023-08-30T05:07:21;12.50;99.90
28677;DHT22;15858;48.338;11.078;2023-08-30T05:09:48;12.50;99.90
28677;DHT22;15858;48.338;11.078;2023-08-30T05:12:14;12.60;99.90
28677;DHT22;15858;48.338;11.078;2023-08-30T05:14:41;12.60;99.90
28677;DHT22;15858;48.338;11.078;2023-08-30T05:17:07;12.60;99.90
28677;DHT22;15858;48.338;11.078;2023-08-30T05:19:34;12.50;99.90
28677;DHT22;15858;48.338;11.078;2023-08-30T05:22:01;12.60;99.90
28677;DHT22;15858;48.338;11.078;2023-08-30T05:24:27;12.60;99.90
28677;DHT22;15858;48.338;11.078;2023-08-30T05:26:54;12.50;99.90
28677;DHT22;15858;48.338;11.078;2023-08-30T05:29:21;12.60;99.90
28677;DHT22;15858;48.338;11.078;2023-08-30T05:31:47;12.50;99.90
28677;DHT22;15858;48.338;11.078;2023-08-30T05:34:14;12.60;99.90
28677;DHT22;15858;48.338;11.078;2023-08-30T05:36:41;12.60;99.90
28677;DHT22;15858;48.338;11.078;2023-08-30T05:39:07;12.60;99.90
28677;DHT22;15858;48.338;11.078;2023-08-30T05:41:34;12.60;99.90
28677;DHT22;15858;48.338;11.078;2023-08-30T05:44:01;12.60;99.90
28677;DHT22;15858;48.338;11.078;2023-08-30T05:46:27;12.60;99.90
28677;DHT22;15858;48.338;11.078;2023-08-30T05:48:54;12.60;99.90
28677;DHT22;15858;48.338;11.078;2023-08-30T05:51:21;12.70;99.90
28677;DHT22;15858;48.338;11.078;2023-08-30T05:53:47;12.70;99.90
28677;DHT22;15858;48.338;11.078;2023-08-30T05:56:14;12.70;99.90
28677;DHT22;15858;48.338;11.078;2023-08-30T05:58:41;12.70;99.90
28677;DHT22;15858;48.338;11.078;2023-08-30T06:01:07;12.60;99.90
28677;DHT22;15858;48.338;11.078;2023-08-30T06:03:34;12.70;99.90
28677;DHT22;15858;48.338;11.078;2023-08-30T06:06:01;12.70;99.90
28677;DHT22;15858;48.338;11.078;2023-08-30T06:08:28;12.70;99.90
28677;DHT22;15858;48.338;11.078;2023-08-30T06:10:54;12.70;99.90
28677;DHT22;15858;48.338;11.078;2023-08-30T06:13:22;12.70;99.90
28677;DHT22;15858;48.338;11.078;2023-08-30T06:15:52;12.70;99.90
28677;DHT22;15858;48.338;11.078;2023-08-30T06:18:19;12.70;99.90
28677;DHT22;15858;48.338;11.078;2023-08-30T06:20:46;12.80;99.90
28677;DHT22;15858;48.338;11.078;2023-08-30T06:23:14;12.80;99.90
28677;DHT22;15858;48.338;11.078;2023-08-30T06:25:41;12.80;99.90
28677;DHT22;15858;48.338;11.078;2023-08-30T06:28:07;12.80;99.90
28677;DHT22;15858;48.338;11.078;2023-08-30T06:30:35;12.80;99.90
28677;DHT22;15858;48.338;11.078;2023-08-30T06:33:01;12.90;99.90
28677;DHT22;15858;48.338;11.078;2023-08-30T06:35:28;13.00;99.90
28677;DHT22;15858;48.338;11.078;2023-08-30T06:37:54;12.90;99.90
28677;DHT22;15858;48.338;11.078;2023-08-30T06:40:21;12.90;99.90
28677;DHT22;15858;48.338;11.078;2023-08-30T06:42:48;13.00;99.90
28677;DHT22;15858;48.338;11.078;2023-08-30T06:45:14;13.00;99.90
28677;DHT22;15858;48.338;11.078;2023-08-30T06:47:41;13.00;99.90
28677;DHT22;15858;48.338;11.078;2023-08-30T06:50:08;13.00;99.90
28677;DHT22;15858;48.338;11.078;2023-08-30T06:52:35;13.00;99.90
28677;DHT22;15858;48.338;11.078;2023-08-30T06:55:02;13.00;99.90
28677;DHT22;15858;48.338;11.078;2023-08-30T06:57:28;13.00;99.90
28677;DHT22;15858;48.338;11.078;2023-08-30T06:59:55;13.10;99.90
28677;DHT22;15858;48.338;11.078;2023-08-30T07:02:22;13.10;99.90
28677;DHT22;15858;48.338;11.078;2023-08-30T07:04:48;13.10;99.90
28677;DHT22;15858;48.338;11.078;2023-08-30T07:07:15;13.20;99.90
28677;DHT22;15858;48.338;11.078;2023-08-30T07:09:41;13.20;99.90
28677;DHT22;15858;48.338;11.078;2023-08-30T07:12:08;13.20;99.90
28677;DHT22;15858;48.338;11.078;2023-08-30T07:14:35;13.20;99.90
28677;DHT22;15858;48.338;11.078;2023-08-30T07:17:01;13.30;99.90
28677;DHT22;15858;48.338;11.078;2023-08-30T07:19:28;13.30;99.90
28677;DHT22;15858;48.338;11.078;2023-08-30T07:21:55;13.40;99.90
28677;DHT22;15858;48.338;11.078;2023-08-30T07:24:21;13.40;99.90
28677;DHT22;15858;48.338;11.078;2023-08-30T07:26:48;13.40;99.90
28677;DHT22;15858;48.338;11.078;2023-08-30T07:29:14;13.50;99.90
28677;DHT22;15858;48.338;11.078;2023-08-30T07:31:41;13.60;99.90
28677;DHT22;15858;48.338;11.078;2023-08-30T07:34:08;13.60;99.90
28677;DHT22;15858;48.338;11.078;2023-08-30T07:36:34;13.70;99.90
28677;DHT22;15858;48.338;11.078;2023-08-30T07:39:13;13.70;99.90
28677;DHT22;15858;48.338;11.078;2023-08-30T07:41:39;13.80;99.90
28677;DHT22;15858;48.338;11.078;2023-08-30T07:44:06;13.80;99.90
28677;DHT22;15858;48.338;11.078;2023-08-30T07:46:33;13.80;99.90
28677;DHT22;15858;48.338;11.078;2023-08-30T07:48:59;13.80;99.90
28677;DHT22;15858;48.338;11.078;2023-08-30T07:51:26;13.80;99.90
28677;DHT22;15858;48.338;11.078;2023-08-30T07:53:53;13.90;99.90
28677;DHT22;15858;48.338;11.078;2023-08-30T07:56:19;13.90;99.90
28677;DHT22;15858;48.338;11.078;2023-08-30T07:58:46;14.00;99.90
28677;DHT22;15858;48.338;11.078;2023-08-30T08:01:13;13.90;99.90
28677;DHT22;15858;48.338;11.078;2023-08-30T08:03:39;14.00;99.90
28677;DHT22;15858;48.338;11.078;2023-08-30T08:06:17;14.00;99.90
28677;DHT22;15858;48.338;11.078;2023-08-30T08:08:44;14.00;99.90
28677;DHT22;15858;48.338;11.078;2023-08-30T08:11:11;14.10;99.90
28677;DHT22;15858;48.338;11.078;2023-08-30T08:13:37;14.10;99.90
28677;DHT22;15858;48.338;11.078;2023-08-30T08:16:04;14.00;99.90
28677;DHT22;15858;48.338;11.078;2023-08-30T08:18:31;14.10;99.90
28677;DHT22;15858;48.338;11.078;2023-08-30T08:20:58;14.10;99.90
28677;DHT22;15858;48.338;11.078;2023-08-30T08:23:24;14.10;99.90
28677;DHT22;15858;48.338;11.078;2023-08-30T08:25:57;14.20;99.90
28677;DHT22;15858;48.338;11.078;2023-08-30T08:28:24;14.20;99.90
28677;DHT22;15858;48.338;11.078;2023-08-30T08:30:51;14.30;99.90
28677;DHT22;15858;48.338;11.078;2023-08-30T08:33:18;14.50;99.90
28677;DHT22;15858;48.338;11.078;2023-08-30T08:35:44;14.70;99.90
28677;DHT22;15858;48.338;11.078;2023-08-30T08:38:11;14.80;99.90
28677;DHT22;15858;48.338;11.078;2023-08-30T08:40:38;15.00;99.90
28677;DHT22;15858;48.338;11.078;2023-08-30T08:43:10;15.10;99.90
28677;DHT22;15858;48.338;11.078;2023-08-30T08:45:37;15.20;99.90
28677;DHT22;15858;48.338;11.078;2023-08-30T08:48:05;15.30;99.90
28677;DHT22;15858;48.338;11.078;2023-08-30T08:50:32;15.30;99.90
28677;DHT22;15858;48.338;11.078;2023-08-30T08:53:00;15.30;99.90
28677;DHT22;15858;48.338;11.078;2023-08-30T08:55:28;15.40;99.90
28677;DHT22;15858;48.338;11.078;2023-08-30T08:57:56;15.60;99.90
28677;DHT22;15858;48.338;11.078;2023-08-30T09:00:24;15.50;99.90
28677;DHT22;15858;48.338;11.078;2023-08-30T09:02:51;15.70;99.90
28677;DHT22;15858;48.338;11.078;2023-08-30T09:05:19;15.90;99.90
28677;DHT22;15858;48.338;11.078;2023-08-30T09:07:47;16.00;99.90
28677;DHT22;15858;48.338;11.078;2023-08-30T09:10:13;16.30;99.90
28677;DHT22;15858;48.338;11.078;2023-08-30T09:12:40;16.40;99.90
28677;DHT22;15858;48.338;11.078;2023-08-30T09:15:07;16.30;99.90
28677;DHT22;15858;48.338;11.078;2023-08-30T09:17:38;16.40;99.90
28677;DHT22;15858;48.338;11.078;2023-08-30T09:20:12;16.50;99.90
28677;DHT22;15858;48.338;11.078;2023-08-30T09:22:39;16.70;99.90
28677;DHT22;15858;48.338;11.078;2023-08-30T09:25:09;16.90;99.90
28677;DHT22;15858;48.338;11.078;2023-08-30T09:27:36;17.00;99.90
28677;DHT22;15858;48.338;11.078;2023-08-30T09:30:05;17.10;99.90
28677;DHT22;15858;48.338;11.078;2023-08-30T09:32:32;17.30;99.90
28677;DHT22;15858;48.338;11.078;2023-08-30T09:35:04;17.10;99.90
28677;DHT22;15858;48.338;11.078;2023-08-30T09:37:31;17.30;99.90
28677;DHT22;15858;48.338;11.078;2023-08-30T09:39:57;17.50;99.90
28677;DHT22;15858;48.338;11.078;2023-08-30T09:42:24;17.60;99.90
28677;DHT22;15858;48.338;11.078;2023-08-30T09:44:51;17.50;99.90
28677;DHT22;15858;48.338;11.078;2023-08-30T09:47:18;17.50;99.90
28677;DHT22;15858;48.338;11.078;2023-08-30T09:49:45;17.70;99.90
28677;DHT22;15858;48.338;11.078;2023-08-30T09:52:15;17.60;99.90
28677;DHT22;15858;48.338;11.078;2023-08-30T09:54:42;17.70;99.90
28677;DHT22;15858;48.338;11.078;2023-08-30T09:57:09;17.80;99.90
28677;DHT22;15858;48.338;11.078;2023-08-30T09:59:38;17.90;99.90
28677;DHT22;15858;48.338;11.078;2023-08-30T10:02:05;17.90;99.90
28677;DHT22;15858;48.338;11.078;2023-08-30T10:04:36;18.10;99.90
28677;DHT22;15858;48.338;11.078;2023-08-30T10:07:04;18.10;99.90
28677;DHT22;15858;48.338;11.078;2023-08-30T10:09:32;18.10;99.90
28677;DHT22;15858;48.338;11.078;2023-08-30T10:12:00;18.30;99.90
28677;DHT22;15858;48.338;11.078;2023-08-30T10:14:28;18.30;99.90
28677;DHT22;15858;48.338;11.078;2023-08-30T10:17:01;18.20;99.90
28677;DHT22;15858;48.338;11.078;2023-08-30T10:19:28;18.10;99.90
28677;DHT22;15858;48.338;11.078;2023-08-30T10:22:03;18.20;99.90
28677;DHT22;15858;48.338;11.078;2023-08-30T10:24:32;18.30;99.90
28677;DHT22;15858;48.338;11.078;2023-08-30T10:27:18;18.70;99.90
28677;DHT22;15858;48.338;11.078;2023-08-30T10:29:48;18.70;99.90
28677;DHT22;15858;48.338;11.078;2023-08-30T10:32:20;18.70;99.90
28677;DHT22;15858;48.338;11.078;2023-08-30T10:34:48;18.40;99.90
28677;DHT22;15858;48.338;11.078;2023-08-30T10:37:15;18.10;99.90
28677;DHT22;15858;48.338;11.078;2023-08-30T10:39:42;18.00;99.90
28677;DHT22;15858;48.338;11.078;2023-08-30T10:42:14;17.80;99.90
28677;DHT22;15858;48.338;11.078;2023-08-30T10:44:48;17.60;99.90
28677;DHT22;15858;48.338;11.078;2023-08-30T10:47:36;17.50;99.90
28677;DHT22;15858;48.338;11.078;2023-08-30T10:50:07;17.40;99.90
28677;DHT22;15858;48.338;11.078;2023-08-30T10:52:34;17.40;99.90
28677;DHT22;15858;48.338;11.078;2023-08-30T10:55:09;17.20;99.90
28677;DHT22;15858;48.338;11.078;2023-08-30T10:57:37;17.20;99.90
28677;DHT22;15858;48.338;11.078;2023-08-30T11:00:18;17.20;99.90
28677;DHT22;15858;48.338;11.078;2023-08-30T11:02:46;17.20;99.90
28677;DHT22;15858;48.338;11.078;2023-08-30T11:05:16;17.10;99.90
28677;DHT22;15858;48.338;11.078;2023-08-30T11:07:46;17.20;99.90
28677;DHT22;15858;48.338;11.078;2023-08-30T11:10:14;17.20;99.90
28677;DHT22;15858;48.338;11.078;2023-08-30T11:12:41;17.20;99.90
28677;DHT22;15858;48.338;11.078;2023-08-30T11:15:10;17.20;99.90
28677;DHT22;15858;48.338;11.078;2023-08-30T11:17:37;17.20;99.90
28677;DHT22;15858;48.338;11.078;2023-08-30T11:20:17;17.10;99.90
28677;DHT22;15858;48.338;11.078;2023-08-30T11:22:45;17.20;99.90
28677;DHT22;15858;48.338;11.078;2023-08-30T11:25:13;17.10;99.90
28677;DHT22;15858;48.338;11.078;2023-08-30T11:27:41;17.10;99.90
28677;DHT22;15858;48.338;11.078;2023-08-30T11:30:09;17.10;99.90
28677;DHT22;15858;48.338;11.078;2023-08-30T11:32:37;17.10;99.90
28677;DHT22;15858;48.338;11.078;2023-08-30T11:35:05;17.10;99.90
28677;DHT22;15858;48.338;11.078;2023-08-30T11:37:32;17.10;99.90
28677;DHT22;15858;48.338;11.078;2023-08-30T11:40:00;17.10;99.90
28677;DHT22;15858;48.338;11.078;2023-08-30T11:42:27;17.20;99.90
28677;DHT22;15858;48.338;11.078;2023-08-30T11:44:54;17.20;99.90
28677;DHT22;15858;48.338;11.078;2023-08-30T11:47:25;17.30;99.90
28677;DHT22;15858;48.338;11.078;2023-08-30T11:49:53;17.20;99.90
28677;DHT22;15858;48.338;11.078;2023-08-30T11:52:21;17.20;99.90
28677;DHT22;15858;48.338;11.078;2023-08-30T11:54:49;17.30;99.90
28677;DHT22;15858;48.338;11.078;2023-08-30T11:57:16;17.40;99.90
28677;DHT22;15858;48.338;11.078;2023-08-30T11:59:49;17.60;99.90
28677;DHT22;15858;48.338;11.078;2023-08-30T12:02:16;17.60;99.90
28677;DHT22;15858;48.338;11.078;2023-08-30T12:04:44;17.80;99.90
28677;DHT22;15858;48.338;11.078;2023-08-30T12:07:24;18.00;99.90
28677;DHT22;15858;48.338;11.078;2023-08-30T12:09:51;18.20;99.90
28677;DHT22;15858;48.338;11.078;2023-08-30T12:12:18;18.20;99.90
28677;DHT22;15858;48.338;11.078;2023-08-30T12:14:45;18.40;99.90
28677;DHT22;15858;48.338;11.078;2023-08-30T12:17:11;18.60;99.90
28677;DHT22;15858;48.338;11.078;2023-08-30T12:19:38;18.70;99.90
28677;DHT22;15858;48.338;11.078;2023-08-30T12:22:08;18.70;99.90
28677;DHT22;15858;48.338;11.078;2023-08-30T12:24:44;18.90;99.90
28677;DHT22;15858;48.338;11.078;2023-08-30T12:27:12;19.10;99.90
28677;DHT22;15858;48.338;11.078;2023-08-30T12:29:38;19.30;99.90
28677;DHT22;15858;48.338;11.078;2023-08-30T12:32:06;19.40;99.90
28677;DHT22;15858;48.338;11.078;2023-08-30T12:34:34;19.50;99.90
28677;DHT22;15858;48.338;11.078;2023-08-30T12:37:00;19.70;99.90
28677;DHT22;15858;48.338;11.078;2023-08-30T12:39:30;19.90;99.90
28677;DHT22;15858;48.338;11.078;2023-08-30T12:41:57;19.70;99.90
28677;DHT22;15858;48.338;11.078;2023-08-30T12:44:23;19.80;99.90
28677;DHT22;15858;48.338;11.078;2023-08-30T12:46:50;19.70;99.90
28677;DHT22;15858;48.338;11.078;2023-08-30T12:49:17;19.70;99.90
28677;DHT22;15858;48.338;11.078;2023-08-30T12:51:43;19.50;99.90
28677;DHT22;15858;48.338;11.078;2023-08-30T12:54:10;19.30;99.90
28677;DHT22;15858;48.338;11.078;2023-08-30T12:56:37;19.30;99.90
28677;DHT22;15858;48.338;11.078;2023-08-30T12:59:03;19.20;99.90
28677;DHT22;15858;48.338;11.078;2023-08-30T13:01:30;19.20;99.90
28677;DHT22;15858;48.338;11.078;2023-08-30T13:03:57;19.20;99.90
28677;DHT22;15858;48.338;11.078;2023-08-30T13:06:23;19.30;99.90
28677;DHT22;15858;48.338;11.078;2023-08-30T13:08:50;19.20;99.90
28677;DHT22;15858;48.338;11.078;2023-08-30T13:11:17;18.90;99.90
28677;DHT22;15858;48.338;11.078;2023-08-30T13:13:43;18.90;99.90
28677;DHT22;15858;48.338;11.078;2023-08-30T13:16:10;18.80;99.90
28677;DHT22;15858;48.338;11.078;2023-08-30T13:18:36;18.80;99.90
28677;DHT22;15858;48.338;11.078;2023-08-30T13:21:03;18.70;99.90
28677;DHT22;15858;48.338;11.078;2023-08-30T13:23:30;18.60;99.90
28677;DHT22;15858;48.338;11.078;2023-08-30T13:25:56;18.50;99.90
28677;DHT22;15858;48.338;11.078;2023-08-30T13:28:23;18.40;99.90
28677;DHT22;15858;48.338;11.078;2023-08-30T13:30:50;18.40;99.90
28677;DHT22;15858;48.338;11.078;2023-08-30T13:33:16;18.40;99.90
28677;DHT22;15858;48.338;11.078;2023-08-30T13:35:43;18.30;99.90
28677;DHT22;15858;48.338;11.078;2023-08-30T13:38:14;18.30;99.90
28677;DHT22;15858;48.338;11.078;2023-08-30T13:40:41;18.30;99.90
28677;DHT22;15858;48.338;11.078;2023-08-30T13:43:08;18.20;99.90
28677;DHT22;15858;48.338;11.078;2023-08-30T13:45:35;18.30;99.90
28677;DHT22;15858;48.338;11.078;2023-08-30T13:48:01;18.30;99.90
28677;DHT22;15858;48.338;11.078;2023-08-30T13:50:28;18.40;99.90
28677;DHT22;15858;48.338;11.078;2023-08-30T13:52:55;18.30;99.90
28677;DHT22;15858;48.338;11.078;2023-08-30T13:55:22;18.30;99.90
28677;DHT22;15858;48.338;11.078;2023-08-30T13:57:48;18.30;99.90
28677;DHT22;15858;48.338;11.078;2023-08-30T14:00:15;18.20;99.90
28677;DHT22;15858;48.338;11.078;2023-08-30T14:02:42;18.20;99.90
28677;DHT22;15858;48.338;11.078;2023-08-30T14:05:09;18.20;99.90
28677;DHT22;15858;48.338;11.078;2023-08-30T14:07:35;18.10;99.90
28677;DHT22;15858;48.338;11.078;2023-08-30T14:10:02;18.00;99.90
28677;DHT22;15858;48.338;11.078;2023-08-30T14:12:29;18.00;99.90
28677;DHT22;15858;48.338;11.078;2023-08-30T14:14:55;18.00;99.90
28677;DHT22;15858;48.338;11.078;2023-08-30T14:17:22;17.90;99.90
28677;DHT22;15858;48.338;11.078;2023-08-30T14:19:50;17.90;99.90
28677;DHT22;15858;48.338;11.078;2023-08-30T14:22:17;17.80;99.90
28677;DHT22;15858;48.338;11.078;2023-08-30T14:24:43;17.80;99.90
28677;DHT22;15858;48.338;11.078;2023-08-30T14:27:28;17.80;99.90
28677;DHT22;15858;48.338;11.078;2023-08-30T14:29:55;17.80;99.90
28677;DHT22;15858;48.338;11.078;2023-08-30T14:32:21;17.80;99.90
28677;DHT22;15858;48.338;11.078;2023-08-30T14:34:48;17.80;99.90
28677;DHT22;15858;48.338;11.078;2023-08-30T14:37:15;17.70;99.90
28677;DHT22;15858;48.338;11.078;2023-08-30T14:39:41;17.80;99.90
28677;DHT22;15858;48.338;11.078;2023-08-30T14:42:08;17.80;99.90
28677;DHT22;15858;48.338;11.078;2023-08-30T14:44:34;17.80;99.90
28677;DHT22;15858;48.338;11.078;2023-08-30T14:47:01;17.90;99.90
28677;DHT22;15858;48.338;11.078;2023-08-30T14:49:30;17.90;99.90
28677;DHT22;15858;48.338;11.078;2023-08-30T14:51:57;18.00;99.90
28677;DHT22;15858;48.338;11.078;2023-08-30T14:54:24;18.00;99.90
28677;DHT22;15858;48.338;11.078;2023-08-30T14:56:50;18.00;99.90
28677;DHT22;15858;48.338;11.078;2023-08-30T14:59:17;18.00;99.90
28677;DHT22;15858;48.338;11.078;2023-08-30T15:01:44;18.00;99.90
28677;DHT22;15858;48.338;11.078;2023-08-30T15:04:10;18.00;99.90
28677;DHT22;15858;48.338;11.078;2023-08-30T15:06:37;18.00;99.90
28677;DHT22;15858;48.338;11.078;2023-08-30T15:09:04;18.00;99.90
28677;DHT22;15858;48.338;11.078;2023-08-30T15:11:30;18.00;99.90
28677;DHT22;15858;48.338;11.078;2023-08-30T15:13:57;17.90;99.90
28677;DHT22;15858;48.338;11.078;2023-08-30T15:16:24;17.80;99.90
28677;DHT22;15858;48.338;11.078;2023-08-30T15:18:51;17.80;99.90